Time;durP1;ratioP1;P1;durP2;ratioP2;P2;SDS_P1;SDS_P2;PMS_P1;PMS_P2;Temp;Humidity;BMP_temperature;BMP_pressure;BME280_temperature;BME280_humidity;BME280_pressure;Samples;Min_cycle;Max_cycle;Signal;HPM_P1;HPM_P2
2022/06/05 00:00:15;;;;;;;8.05;4.50;;;12.00;99.90;;;;;;4250398;27;20418;-81
2022/06/05 00:02:40;;;;;;;6.22;4.63;;;12.00;99.90;;;;;;4232403;28;20050;-80
2022/06/05 00:05:02;;;;;;;7.72;5.10;;;11.90;99.90;;;;;;4243158;27;20108;-80
2022/06/05 00:07:39;;;;;;;9.88;4.93;;;11.90;99.90;;;;;;4233505;28;20035;-81
2022/06/05 00:09:48;;;;;;;8.35;4.85;;;11.90;99.90;;;;;;4228550;28;20098;-81
2022/06/05 00:12:14;;;;;;;11.13;5.53;;;11.90;99.90;;;;;;4232721;28;20039;-80
2022/06/05 00:14:15;;;;;;;8.85;5.20;;;11.80;99.90;;;;;;4223254;28;20101;-81
2022/06/05 00:16:19;;;;;;;9.13;5.00;;;11.80;99.90;;;;;;4233126;28;20032;-81
2022/06/05 00:18:19;;;;;;;10.65;5.32;;;11.80;99.90;;;;;;4233287;28;20039;-81
2022/06/05 00:20:20;;;;;;;8.02;5.13;;;11.70;99.90;;;;;;4233195;28;20377;-82
2022/06/05 00:22:22;;;;;;;10.77;5.38;;;11.70;99.90;;;;;;4214758;28;20048;-82
2022/06/05 00:24:23;;;;;;;9.55;4.78;;;11.70;99.90;;;;;;4232991;28;20028;-83
2022/06/05 00:26:45;;;;;;;10.43;5.80;;;11.70;99.90;;;;;;4214914;28;20075;-83
2022/06/05 00:28:56;;;;;;;8.63;5.22;;;11.70;99.90;;;;;;4233066;28;20478;-82
2022/06/05 00:31:31;;;;;;;11.13;5.18;;;11.70;99.90;;;;;;4233055;28;20553;-83
2022/06/05 00:33:36;;;;;;;12.57;5.72;;;11.80;99.90;;;;;;4233132;28;20087;-82
2022/06/05 00:35:57;;;;;;;9.98;5.20;;;11.80;99.90;;;;;;4232405;28;20039;-81
2022/06/05 00:38:28;;;;;;;13.02;5.55;;;11.70;99.90;;;;;;4233021;28;20038;-81
2022/06/05 00:40:32;;;;;;;11.30;5.07;;;11.80;99.90;;;;;;4232259;28;20158;-81
2022/06/05 00:42:34;;;;;;;12.65;5.15;;;11.80;99.90;;;;;;4231163;28;20054;-81
2022/06/05 00:44:43;;;;;;;7.85;4.60;;;11.70;99.90;;;;;;4232745;28;20403;-81
2022/06/05 00:46:45;;;;;;;;;;;11.70;99.90;;;;;;4215413;28;20048;-81
2022/06/05 00:48:46;;;;;;;9.00;5.13;;;11.70;99.90;;;;;;4232624;28;19920;-81
2022/06/05 00:50:48;;;;;;;10.55;5.47;;;11.70;99.90;;;;;;4232015;28;20058;-81
2022/06/05 00:52:57;;;;;;;9.70;5.30;;;11.80;99.90;;;;;;4232647;28;20069;-81
2022/06/05 00:54:57;;;;;;;9.68;6.00;;;11.80;99.90;;;;;;4232714;28;20039;-81
2022/06/05 00:56:58;;;;;;;9.13;5.30;;;11.80;99.90;;;;;;4232685;28;20076;-81
2022/06/05 00:58:59;;;;;;;16.35;6.30;;;11.70;99.90;;;;;;4232757;28;20118;-81
2022/06/05 01:01:01;;;;;;;12.13;5.65;;;11.70;99.90;;;;;;4232563;28;20055;-81
2022/06/05 01:03:04;;;;;;;10.45;5.15;;;11.70;99.90;;;;;;4231960;28;20047;-81
2022/06/05 01:05:08;;;;;;;9.18;5.22;;;11.70;99.90;;;;;;4232758;28;20465;-81
2022/06/05 01:07:09;;;;;;;9.32;4.97;;;11.70;99.90;;;;;;4232615;28;20069;-81
2022/06/05 01:09:09;;;;;;;9.73;5.05;;;11.70;99.90;;;;;;4232734;28;20047;-81
2022/06/05 01:11:38;;;;;;;10.57;5.50;;;11.70;99.90;;;;;;4214212;28;20043;-82
2022/06/05 01:13:44;;;;;;;12.95;5.03;;;11.70;99.90;;;;;;4232334;28;20063;-81
2022/06/05 01:16:17;;;;;;;15.10;6.45;;;11.60;99.90;;;;;;4232600;28;20043;-82
2022/06/05 01:18:23;;;;;;;11.30;5.47;;;11.70;99.90;;;;;;4197887;28;20048;-82
2022/06/05 01:20:55;;;;;;;9.07;5.18;;;11.60;99.90;;;;;;4232449;28;20474;-81
2022/06/05 01:23:05;;;;;;;9.25;4.32;;;11.70;99.90;;;;;;4232713;28;20487;-81
2022/06/05 01:25:17;;;;;;;16.23;4.60;;;11.60;99.90;;;;;;4197592;28;20071;-81
2022/06/05 01:27:27;;;;;;;8.88;4.38;;;11.60;99.90;;;;;;4231078;28;20101;-81
2022/06/05 01:29:58;;;;;;;8.82;4.63;;;11.60;99.90;;;;;;4249441;27;20099;-81
2022/06/05 01:32:06;;;;;;;9.10;4.90;;;11.60;99.90;;;;;;4250719;27;20498;-81
2022/06/05 01:34:22;;;;;;;11.45;4.72;;;11.60;99.90;;;;;;4252262;27;20070;-81
2022/06/05 01:36:36;;;;;;;7.43;4.68;;;11.60;99.90;;;;;;4252014;27;20399;-81
2022/06/05 01:38:42;;;;;;;8.68;4.35;;;11.60;99.90;;;;;;4216570;28;20083;-81
2022/06/05 01:40:53;;;;;;;11.20;4.47;;;11.60;99.90;;;;;;4233398;28;20043;-81
2022/06/05 01:43:09;;;;;;;12.70;4.65;;;11.70;99.90;;;;;;4249414;27;20118;-81
2022/06/05 01:45:24;;;;;;;9.43;4.32;;;11.70;99.90;;;;;;4249019;27;20495;-81
2022/06/05 01:47:34;;;;;;;8.95;4.22;;;11.70;99.90;;;;;;4249558;27;20050;-81
2022/06/05 01:49:54;;;;;;;8.77;4.72;;;11.70;99.90;;;;;;4249031;27;20054;-81
2022/06/05 01:52:07;;;;;;;14.13;4.47;;;11.70;99.90;;;;;;4249041;28;20039;-81
2022/06/05 01:54:13;;;;;;;9.88;4.75;;;11.60;99.90;;;;;;4229963;28;20484;-81
2022/06/05 01:56:25;;;;;;;13.43;4.97;;;11.70;99.90;;;;;;4230439;28;20101;-81
2022/06/05 01:58:33;;;;;;;9.25;4.45;;;11.60;99.90;;;;;;4249034;28;20122;-81
2022/06/05 02:00:33;;;;;;;9.10;4.47;;;11.70;99.90;;;;;;4248856;28;20092;-81
2022/06/05 02:02:41;;;;;;;8.88;4.70;;;11.70;99.90;;;;;;4248404;28;20067;-81
2022/06/05 02:04:49;;;;;;;9.05;4.75;;;11.70;99.90;;;;;;4242149;28;20040;-81
2022/06/05 02:07:13;;;;;;;16.73;4.88;;;11.70;99.90;;;;;;4231951;28;20126;-81
2022/06/05 02:09:37;;;;;;;12.60;5.65;;;11.70;99.90;;;;;;4232182;28;20043;-81
2022/06/05 02:11:39;;;;;;;9.60;4.40;;;11.70;99.90;;;;;;4231327;28;20047;-81
2022/06/05 02:13:40;;;;;;;9.65;4.72;;;11.70;99.90;;;;;;4231924;28;20510;-82
2022/06/05 02:15:42;;;;;;;7.45;4.40;;;11.70;99.90;;;;;;4234790;28;20048;-81
2022/06/05 02:17:43;;;;;;;8.10;4.28;;;11.70;99.90;;;;;;4231551;28;20097;-81
2022/06/05 02:19:44;;;;;;;10.00;5.93;;;11.70;99.90;;;;;;4213923;28;20450;-81
2022/06/05 02:21:46;;;;;;;19.70;6.53;;;11.70;99.90;;;;;;4231444;28;20051;-81
2022/06/05 02:23:46;;;;;;;8.00;4.68;;;11.80;99.90;;;;;;4231148;28;20058;-81
2022/06/05 02:25:47;;;;;;;8.90;4.80;;;11.80;99.90;;;;;;4231757;28;20411;-81
2022/06/05 02:27:48;;;;;;;16.02;6.25;;;11.70;99.90;;;;;;4231469;28;20468;-81
2022/06/05 02:29:50;;;;;;;9.57;3.75;;;11.80;99.90;;;;;;4231825;28;20039;-81
2022/06/05 02:32:28;;;;;;;12.32;4.88;;;11.80;99.90;;;;;;4231753;28;20051;-81
2022/06/05 02:34:53;;;;;;;19.05;4.93;;;11.80;99.90;;;;;;4146616;28;20050;-81
2022/06/05 02:37:13;;;;;;;10.10;4.82;;;11.80;99.90;;;;;;4231455;28;20539;-81
2022/06/05 02:39:26;;;;;;;14.98;4.57;;;11.80;99.90;;;;;;4231451;28;20040;-81
2022/06/05 02:41:45;;;;;;;9.27;4.30;;;11.80;99.90;;;;;;4231634;28;20047;-81
2022/06/05 02:46:29;;;;;;;7.90;4.30;;;11.80;99.90;;;;;;4231659;28;20047;-81
2022/06/05 02:48:42;;;;;;;12.50;4.63;;;11.80;99.90;;;;;;4212917;28;20044;-81
2022/06/05 02:50:49;;;;;;;12.75;4.72;;;11.80;99.90;;;;;;4231095;28;20040;-82
2022/06/05 02:52:51;;;;;;;10.27;4.68;;;11.80;99.90;;;;;;4231639;28;20054;-81
2022/06/05 02:55:01;;;;;;;8.30;5.38;;;11.80;99.90;;;;;;4231556;28;20071;-81
2022/06/05 02:57:01;;;;;;;11.38;5.03;;;11.70;99.90;;;;;;4230468;28;20086;-82
2022/06/05 02:59:03;;;;;;;9.93;5.03;;;11.80;99.90;;;;;;4213017;28;20524;-82
2022/06/05 03:03:29;;;;;;;10.25;5.43;;;11.80;99.90;;;;;;4231325;28;20051;-81
2022/06/05 03:05:30;;;;;;;11.00;4.78;;;11.80;99.90;;;;;;4245124;27;20506;-81
2022/06/05 03:07:33;;;;;;;13.93;6.50;;;11.80;99.90;;;;;;4232977;28;20039;-81
2022/06/05 03:09:34;;;;;;;14.93;6.30;;;11.80;99.90;;;;;;4250531;27;20084;-81
2022/06/05 03:11:34;;;;;;;12.13;5.80;;;11.80;99.90;;;;;;4251301;27;20074;-82
2022/06/05 03:13:35;;;;;;;12.07;5.05;;;11.80;99.90;;;;;;4233149;28;20065;-81
2022/06/05 03:15:36;;;;;;;12.00;5.72;;;11.80;99.90;;;;;;4233584;28;20062;-82
2022/06/05 03:17:37;;;;;;;9.68;5.93;;;11.80;99.90;;;;;;4251382;27;20137;-81
2022/06/05 03:19:38;;;;;;;14.50;5.90;;;11.80;99.90;;;;;;4250449;27;20043;-81
2022/06/05 03:21:39;;;;;;;13.05;6.65;;;11.80;99.90;;;;;;4251127;27;20053;-82
2022/06/05 03:23:40;;;;;;;15.05;5.80;;;11.80;99.90;;;;;;4232354;28;20113;-82
2022/06/05 03:25:42;;;;;;;14.05;6.35;;;11.80;99.90;;;;;;4250945;27;20047;-82
2022/06/05 03:27:43;;;;;;;14.75;6.65;;;11.80;99.90;;;;;;4251249;27;20653;-81
2022/06/05 03:29:43;;;;;;;16.10;6.25;;;11.80;99.90;;;;;;4216060;28;20126;-81
2022/06/05 03:31:45;;;;;;;14.80;6.85;;;11.80;99.90;;;;;;4251020;27;20498;-82
2022/06/05 03:33:46;;;;;;;16.27;7.07;;;11.80;99.90;;;;;;4232560;28;20036;-82
2022/06/05 03:35:47;;;;;;;11.23;5.88;;;11.80;99.90;;;;;;4250713;27;20133;-82
2022/06/05 03:37:49;;;;;;;14.65;7.57;;;11.90;99.90;;;;;;4250545;27;20403;-82
2022/06/05 03:39:50;;;;;;;17.23;6.53;;;11.90;99.90;;;;;;4250634;27;20089;-81
2022/06/05 03:41:50;;;;;;;14.68;6.93;;;11.90;99.90;;;;;;4250539;27;20403;-81
2022/06/05 03:43:51;;;;;;;15.45;7.15;;;11.90;99.90;;;;;;4250716;27;20135;-82
2022/06/05 03:46:00;;;;;;;13.18;6.55;;;12.00;99.90;;;;;;4250947;27;20039;-82
2022/06/05 03:48:02;;;;;;;13.07;5.90;;;12.00;99.90;;;;;;4250793;27;20057;-82
2022/06/05 03:50:03;;;;;;;12.60;6.53;;;12.00;99.90;;;;;;4250803;27;20046;-81
2022/06/05 03:52:04;;;;;;;16.65;6.20;;;12.00;99.90;;;;;;4251025;27;20122;-81
2022/06/05 03:54:05;;;;;;;13.57;6.45;;;12.00;99.90;;;;;;4231769;28;20062;-82
2022/06/05 03:56:16;;;;;;;11.35;6.40;;;12.00;99.90;;;;;;4232259;28;20126;-81
2022/06/05 03:58:17;;;;;;;10.98;5.93;;;12.10;99.90;;;;;;4250486;27;20035;-81
2022/06/05 04:00:20;;;;;;;14.23;5.85;;;12.10;99.90;;;;;;4232369;28;20055;-81
2022/06/05 04:02:21;;;;;;;14.95;7.03;;;12.10;99.90;;;;;;4250378;27;20107;-82
2022/06/05 04:04:21;;;;;;;11.13;5.90;;;12.10;99.90;;;;;;4246549;27;20039;-82
2022/06/05 04:06:29;;;;;;;18.13;7.13;;;12.20;99.90;;;;;;4234160;28;20055;-81
2022/06/05 04:08:30;;;;;;;17.50;7.07;;;12.20;99.90;;;;;;4234236;28;20069;-82
2022/06/05 04:10:32;;;;;;;10.98;6.32;;;12.20;99.90;;;;;;4233031;28;20044;-82
2022/06/05 04:12:33;;;;;;;14.05;6.10;;;12.20;99.90;;;;;;4233467;28;20039;-82
2022/06/05 04:14:33;;;;;;;19.65;7.30;;;12.20;99.90;;;;;;4233570;28;20123;-82
2022/06/05 04:16:38;;;;;;;18.45;6.55;;;12.20;99.90;;;;;;4233150;28;20036;-82
2022/06/05 04:18:39;;;;;;;12.27;6.53;;;12.30;99.90;;;;;;4232699;28;20085;-82
2022/06/05 04:20:40;;;;;;;14.50;6.65;;;12.30;99.90;;;;;;4233019;28;20047;-82
2022/06/05 04:22:41;;;;;;;14.07;6.13;;;12.30;99.90;;;;;;4214712;28;20478;-82
2022/06/05 04:24:42;;;;;;;15.02;7.00;;;12.40;99.90;;;;;;4232673;28;20392;-82
2022/06/05 04:26:43;;;;;;;15.50;7.25;;;12.40;99.90;;;;;;4215350;28;20044;-82
2022/06/05 04:28:44;;;;;;;12.80;6.95;;;12.40;99.90;;;;;;4233007;28;20043;-82
2022/06/05 04:30:45;;;;;;;15.70;6.80;;;12.40;99.90;;;;;;4214972;28;20570;-81
2022/06/05 04:32:45;;;;;;;15.30;6.22;;;12.50;99.90;;;;;;4214555;28;20047;-82
2022/06/05 04:34:49;;;;;;;22.17;6.78;;;12.50;99.90;;;;;;4214723;28;20496;-82
2022/06/05 04:36:51;;;;;;;12.98;6.38;;;12.50;99.90;;;;;;4232624;28;20411;-82
2022/06/05 04:38:52;;;;;;;13.63;7.00;;;12.60;99.90;;;;;;4232652;28;20040;-82
2022/06/05 04:40:52;;;;;;;15.25;6.97;;;12.60;99.90;;;;;;4181322;28;20060;-82
2022/06/05 04:42:53;;;;;;;15.18;7.22;;;12.70;99.90;;;;;;4232507;28;20048;-82
2022/06/05 04:44:54;;;;;;;15.65;7.38;;;12.70;99.90;;;;;;4231947;28;20122;-82
2022/06/05 04:46:55;;;;;;;11.45;6.55;;;12.80;99.90;;;;;;4232759;28;20114;-82
2022/06/05 04:48:57;;;;;;;14.65;6.60;;;12.90;99.90;;;;;;4232300;28;20088;-80
2022/06/05 04:50:58;;;;;;;18.33;7.75;;;12.90;99.90;;;;;;4232933;28;20100;-82
2022/06/05 04:52:59;;;;;;;13.48;7.20;;;13.00;99.90;;;;;;4232228;28;20506;-81
2022/06/05 04:55:01;;;;;;;13.88;7.38;;;13.00;99.90;;;;;;4233051;28;20039;-81
2022/06/05 04:57:02;;;;;;;16.05;7.07;;;13.10;99.90;;;;;;4241559;27;20047;-81
2022/06/05 04:59:03;;;;;;;14.82;7.18;;;13.20;99.90;;;;;;4234220;27;20047;-82
2022/06/05 05:01:23;;;;;;;16.00;7.55;;;13.30;99.90;;;;;;4232326;28;20114;-81
2022/06/05 05:03:24;;;;;;;19.58;7.75;;;13.30;99.90;;;;;;4232176;28;20108;-81
2022/06/05 05:05:25;;;;;;;16.70;7.38;;;13.30;99.90;;;;;;4245487;27;20047;-82
2022/06/05 05:07:26;;;;;;;18.17;7.72;;;13.40;99.90;;;;;;4249017;27;20055;-82
2022/06/05 05:09:26;;;;;;;14.32;7.32;;;13.40;99.90;;;;;;4249696;27;20074;-80
2022/06/05 05:11:28;;;;;;;18.02;7.72;;;13.50;99.90;;;;;;4249251;27;20042;-82
2022/06/05 05:13:29;;;;;;;20.20;7.75;;;13.40;99.90;;;;;;4249348;27;20067;-82
2022/06/05 05:15:30;;;;;;;14.40;6.85;;;13.50;99.90;;;;;;4249351;27;20054;-82
2022/06/05 05:17:30;;;;;;;17.92;8.25;;;13.50;99.90;;;;;;4249393;27;20042;-82
2022/06/05 05:19:31;;;;;;;14.95;7.47;;;13.50;99.90;;;;;;4248842;27;20059;-82
2022/06/05 05:21:32;;;;;;;13.90;7.35;;;13.50;99.90;;;;;;4249305;27;20082;-82
2022/06/05 05:23:33;;;;;;;13.88;7.50;;;13.60;99.90;;;;;;4249015;27;20560;-82
2022/06/05 05:25:34;;;;;;;16.98;7.60;;;13.60;99.90;;;;;;4249349;27;20454;-81
2022/06/05 05:27:36;;;;;;;15.18;7.88;;;13.60;99.90;;;;;;4249176;27;20038;-82
2022/06/05 05:29:40;;;;;;;14.32;7.20;;;13.70;99.90;;;;;;4213386;28;20074;-82
2022/06/05 05:31:42;;;;;;;15.32;7.65;;;13.70;99.90;;;;;;4248724;27;20039;-82
2022/06/05 05:33:44;;;;;;;17.52;7.70;;;13.80;99.90;;;;;;4231042;28;20047;-81
2022/06/05 05:35:44;;;;;;;13.65;7.05;;;13.80;99.90;;;;;;4249179;27;20035;-81
2022/06/05 05:37:45;;;;;;;14.82;7.38;;;13.90;99.90;;;;;;4249191;27;20047;-82
2022/06/05 05:42:05;;;;;;;13.73;7.00;;;14.20;99.90;;;;;;4248910;27;20398;-82
2022/06/05 05:44:06;;;;;;;13.73;7.15;;;14.40;99.90;;;;;;4248598;27;20047;-82
2022/06/05 05:46:09;;;;;;;16.42;6.97;;;14.50;99.90;;;;;;4249255;27;20085;-81
2022/06/05 05:48:10;;;;;;;12.98;7.30;;;14.60;99.90;;;;;;4231298;28;20051;-82
2022/06/05 05:50:15;;;;;;;13.27;7.38;;;14.70;99.90;;;;;;4231045;28;20059;-81
2022/06/05 05:52:15;;;;;;;13.93;8.20;;;14.80;99.90;;;;;;4248656;27;20038;-81
2022/06/05 05:54:16;;;;;;;12.88;6.85;;;14.90;99.90;;;;;;4248869;28;20387;-81
2022/06/05 05:56:17;;;;;;;13.38;7.00;;;15.00;99.90;;;;;;4248658;28;20035;-81
2022/06/05 05:58:17;;;;;;;18.92;8.77;;;15.10;99.90;;;;;;4248877;28;20039;-82
2022/06/05 06:00:19;;;;;;;14.60;7.30;;;15.30;99.90;;;;;;4248561;28;20115;-82
2022/06/05 06:02:22;;;;;;;11.32;6.28;;;15.30;99.90;;;;;;4248592;28;20092;-81
2022/06/05 06:04:23;;;;;;;12.32;6.97;;;15.40;99.90;;;;;;4243924;28;20075;-81
2022/06/05 06:06:29;;;;;;;15.80;7.22;;;15.50;99.90;;;;;;4231858;28;20039;-81
2022/06/05 06:08:32;;;;;;;11.70;6.80;;;15.60;99.90;;;;;;4231718;28;20055;-81
2022/06/05 06:10:32;;;;;;;16.90;7.25;;;15.50;99.90;;;;;;4231798;28;20039;-81
2022/06/05 06:12:33;;;;;;;13.77;7.40;;;15.60;99.90;;;;;;4231447;28;20039;-81
2022/06/05 06:14:34;;;;;;;9.18;6.00;;;15.60;99.90;;;;;;4231707;28;20050;-81
2022/06/05 06:16:35;;;;;;;13.73;6.75;;;15.60;99.90;;;;;;4232123;28;20035;-81
2022/06/05 06:18:36;;;;;;;11.57;6.18;;;15.60;99.90;;;;;;4214153;28;20051;-82
2022/06/05 06:20:37;;;;;;;13.43;6.53;;;15.60;99.90;;;;;;4213957;28;20059;-85
2022/06/05 06:22:37;;;;;;;10.90;6.40;;;15.70;99.90;;;;;;4214296;28;20047;-81
2022/06/05 06:24:38;;;;;;;12.52;6.30;;;15.70;99.90;;;;;;4243531;28;20042;-82
2022/06/05 06:26:40;;;;;;;11.82;6.40;;;15.70;99.90;;;;;;4248817;28;20379;-81
2022/06/05 06:28:41;;;;;;;15.98;6.70;;;15.70;99.90;;;;;;4249472;28;20118;-81
2022/06/05 06:30:42;;;;;;;9.82;6.20;;;15.80;99.90;;;;;;4247941;28;20096;-81
2022/06/05 06:32:44;;;;;;;9.93;5.95;;;15.80;99.90;;;;;;4224812;28;20048;-81
2022/06/05 06:34:44;;;;;;;9.82;6.90;;;15.80;99.90;;;;;;4231774;28;20066;-81
2022/06/05 06:36:45;;;;;;;8.38;5.03;;;15.90;99.90;;;;;;4236968;28;20035;-82
2022/06/05 06:38:46;;;;;;;12.40;5.82;;;16.00;99.90;;;;;;4248386;28;20047;-81
2022/06/05 06:40:47;;;;;;;8.85;6.22;;;16.10;99.90;;;;;;4249418;27;20047;-81
2022/06/05 06:42:48;;;;;;;9.07;5.93;;;16.10;99.90;;;;;;4252216;27;20035;-82
2022/06/05 06:44:48;;;;;;;10.45;6.35;;;16.20;99.90;;;;;;4251928;27;20040;-81
2022/06/05 06:46:49;;;;;;;9.77;6.43;;;16.20;99.90;;;;;;4251916;27;20043;-82
2022/06/05 06:48:51;;;;;;;10.93;6.50;;;16.30;99.90;;;;;;4247409;27;20495;-82
2022/06/05 06:50:53;;;;;;;12.68;6.38;;;16.40;99.90;;;;;;4235879;28;20044;-80
2022/06/05 06:52:54;;;;;;;9.15;6.32;;;16.40;99.90;;;;;;4234251;28;20061;-81
2022/06/05 06:54:55;;;;;;;15.50;7.05;;;16.50;99.90;;;;;;4216417;28;20451;-81
2022/06/05 06:56:56;;;;;;;9.80;5.80;;;16.50;99.90;;;;;;4234363;28;20048;-81
2022/06/05 06:58:58;;;;;;;10.40;5.68;;;17.30;99.90;;;;;;4234261;28;20054;-81
2022/06/05 07:00:59;;;;;;;11.13;6.13;;;16.70;99.90;;;;;;4234323;28;20531;-80
2022/06/05 07:03:00;;;;;;;12.95;6.20;;;16.70;99.90;;;;;;4234518;28;20046;-80
2022/06/05 07:05:00;;;;;;;9.45;6.25;;;16.80;99.90;;;;;;4243239;27;20118;-81
2022/06/05 07:07:02;;;;;;;15.05;7.82;;;16.90;99.90;;;;;;4252433;27;20043;-81
2022/06/05 07:09:03;;;;;;;11.65;5.70;;;16.90;99.90;;;;;;4252916;27;20471;-81
2022/06/05 07:11:07;;;;;;;11.15;5.75;;;17.00;99.90;;;;;;4253288;27;20039;-81
2022/06/05 07:13:07;;;;;;;9.35;5.43;;;17.10;99.90;;;;;;4233578;28;20479;-81
2022/06/05 07:15:09;;;;;;;8.40;5.20;;;17.20;99.90;;;;;;4251070;27;20039;-81
2022/06/05 07:17:09;;;;;;;11.73;6.18;;;17.30;99.90;;;;;;4250762;27;20039;-81
2022/06/05 07:19:11;;;;;;;10.20;4.78;;;17.40;99.90;;;;;;4250903;27;20046;-81
2022/06/05 07:21:13;;;;;;;8.85;5.53;;;;;;;;;;4250704;27;20043;-80
2022/06/05 07:23:15;;;;;;;10.57;5.88;;;17.40;99.90;;;;;;4251275;27;20039;-80
2022/06/05 07:25:17;;;;;;;10.10;5.10;;;17.60;99.90;;;;;;4251292;27;20035;-81
2022/06/05 07:27:18;;;;;;;8.05;4.95;;;17.70;99.90;;;;;;4251030;27;20475;-81
2022/06/05 07:29:19;;;;;;;9.25;5.30;;;17.90;99.90;;;;;;4251530;27;20446;-81
2022/06/05 07:31:20;;;;;;;9.60;5.60;;;18.00;99.90;;;;;;4233082;28;20123;-81
2022/06/05 07:33:20;;;;;;;9.50;5.35;;;18.10;99.90;;;;;;4251541;27;20043;-81
2022/06/05 07:35:22;;;;;;;10.48;4.72;;;18.10;99.90;;;;;;4251749;27;20479;-81
2022/06/05 07:37:22;;;;;;;11.43;5.47;;;18.10;99.90;;;;;;4233115;28;20448;-81
2022/06/05 07:39:23;;;;;;;9.82;5.13;;;18.20;99.90;;;;;;4250825;27;20046;-82
2022/06/05 07:41:30;;;;;;;9.23;4.60;;;18.30;99.90;;;;;;4233403;28;20085;-83
2022/06/05 07:43:32;;;;;;;10.73;5.45;;;18.40;99.90;;;;;;4251198;27;20043;-83
2022/06/05 07:45:32;;;;;;;10.63;6.35;;;18.40;99.90;;;;;;4250894;27;20043;-82
2022/06/05 07:47:34;;;;;;;9.57;5.60;;;18.50;99.90;;;;;;4232528;28;20119;-83
2022/06/05 07:49:39;;;;;;;8.05;5.40;;;18.60;99.90;;;;;;4251290;27;20043;-83
2022/06/05 07:56:19;;;;;;;10.05;5.35;;;;;;;;;;4249935;27;20096;-84
2022/06/05 07:58:20;;;;;;;8.95;5.13;;;;;;;;;;4251137;27;20043;-84
2022/06/05 08:00:23;;;;;;;9.65;5.68;;;;;;;;;;4250551;27;20457;-84
2022/06/05 08:02:26;;;;;;;11.77;6.00;;;;;;;;;;4251135;27;20043;-84
2022/06/05 08:04:28;;;;;;;8.15;4.88;;;;;;;;;;4250305;27;20414;-83
2022/06/05 08:06:29;;;;;;;9.73;5.13;;;;;;;;;;4251393;27;20039;-84
2022/06/05 08:08:29;;;;;;;9.35;5.40;;;18.70;99.70;;;;;;4251996;27;20483;-84
2022/06/05 08:10:32;;;;;;;10.20;5.00;;;19.50;98.00;;;;;;4233360;28;20039;-84
2022/06/05 08:12:34;;;;;;;6.93;5.13;;;19.60;97.60;;;;;;4251543;27;20039;-84
2022/06/05 08:14:37;;;;;;;9.88;5.55;;;19.70;97.50;;;;;;4252753;27;20079;-84
2022/06/05 08:16:40;;;;;;;8.80;4.80;;;19.80;97.40;;;;;;4250520;27;20057;-84
2022/06/05 08:18:40;;;;;;;7.93;4.95;;;19.90;97.20;;;;;;4232572;27;20104;-84
2022/06/05 08:20:41;;;;;;;6.95;4.72;;;20.00;97.10;;;;;;4250520;27;20467;-84
2022/06/05 08:22:42;;;;;;;7.60;4.80;;;20.10;97.10;;;;;;4238027;27;20088;-84
2022/06/05 08:24:43;;;;;;;7.88;4.90;;;20.30;97.00;;;;;;4251133;27;20039;-84
2022/06/05 08:26:45;;;;;;;7.50;4.72;;;20.30;96.70;;;;;;4250984;27;20058;-84
2022/06/05 08:28:46;;;;;;;10.32;5.18;;;20.40;96.50;;;;;;4250118;27;20049;-84
2022/06/05 08:30:46;;;;;;;6.55;4.40;;;20.50;96.30;;;;;;4250824;27;20043;-84
2022/06/05 08:32:47;;;;;;;6.85;4.20;;;20.60;96.10;;;;;;4250408;27;20035;-82
2022/06/05 08:34:48;;;;;;;8.23;4.75;;;20.80;96.20;;;;;;4232056;28;20526;-84
2022/06/05 08:41:26;;;;;;;5.80;3.90;;;21.00;96.10;;;;;;4232694;28;20512;-84
2022/06/05 08:41:38;;;;;;;7.68;5.20;;;21.20;95.30;;;;;;4243226;27;20113;-84
2022/06/05 08:43:51;;;;;;;7.90;4.45;;;21.20;95.10;;;;;;4250356;27;20166;-85
2022/06/05 08:46:13;;;;;;;8.65;4.40;;;21.30;94.60;;;;;;4250579;27;20047;-84
2022/06/05 08:48:20;;;;;;;6.68;4.03;;;21.30;94.80;;;;;;4250290;27;20091;-84
2022/06/05 08:50:49;;;;;;;8.65;4.78;;;21.50;94.50;;;;;;4249744;27;20491;-84
2022/06/05 08:52:59;;;;;;;10.93;4.50;;;21.60;93.50;;;;;;4250676;27;20055;-84
2022/06/05 08:55:20;;;;;;;6.93;4.30;;;21.60;94.10;;;;;;4249585;27;20046;-86
2022/06/05 08:57:32;;;;;;;6.60;4.53;;;21.70;94.30;;;;;;4249509;27;20054;-84
2022/06/05 08:59:55;;;;;;;8.98;4.72;;;21.80;94.00;;;;;;4249673;27;20065;-83
2022/06/05 09:01:58;;;;;;;8.90;4.40;;;21.80;93.90;;;;;;4249224;27;20051;-84
2022/06/05 09:04:18;;;;;;;6.60;4.25;;;22.00;94.10;;;;;;4249263;27;20047;-85
2022/06/05 09:06:24;;;;;;;12.23;4.88;;;22.20;93.90;;;;;;4249768;27;20046;-84
2022/06/05 09:08:32;;;;;;;7.15;4.50;;;22.30;93.40;;;;;;4249687;27;20118;-84
2022/06/05 09:10:51;;;;;;;5.72;3.65;;;22.30;93.10;;;;;;4249026;27;20050;-84
2022/06/05 09:13:04;;;;;;;8.73;4.25;;;22.30;93.10;;;;;;4247845;27;20046;-85
2022/06/05 09:15:30;;;;;;;7.75;4.20;;;22.40;92.90;;;;;;4249102;27;20047;-86
2022/06/05 09:17:33;;;;;;;7.82;4.10;;;22.40;92.60;;;;;;4248389;27;20051;-83
2022/06/05 09:19:33;;;;;;;5.68;4.63;;;22.40;92.50;;;;;;4248701;27;20436;-83
2022/06/05 09:21:42;;;;;;;6.28;3.80;;;22.30;92.40;;;;;;4248577;27;20054;-83
2022/06/05 09:23:51;;;;;;;9.30;5.10;;;22.30;92.50;;;;;;4248926;27;20400;-83
2022/06/05 09:26:05;;;;;;;7.10;4.50;;;22.40;92.70;;;;;;4249743;27;20043;-84
2022/06/05 09:28:35;;;;;;;8.25;4.18;;;22.40;92.20;;;;;;4248446;27;20463;-83
2022/06/05 09:30:43;;;;;;;5.70;4.10;;;22.30;92.20;;;;;;4248737;27;20055;-83
2022/06/05 09:33:14;;;;;;;5.97;4.55;;;22.30;90.80;;;;;;4248644;27;20126;-83
2022/06/05 09:35:28;;;;;;;7.03;4.47;;;22.30;92.30;;;;;;4227454;27;20067;-83
2022/06/05 09:38:03;;;;;;;7.40;4.13;;;22.40;92.00;;;;;;4248747;27;20057;-84
2022/06/05 09:40:13;;;;;;;5.95;3.90;;;22.50;91.80;;;;;;4234868;27;20044;-83
2022/06/05 09:42:51;;;;;;;8.90;3.72;;;22.80;91.90;;;;;;4233481;27;20062;-83
2022/06/05 09:45:02;;;;;;;5.57;3.90;;;23.00;91.20;;;;;;4232006;28;20035;-84
2022/06/05 09:47:08;;;;;;;6.10;3.50;;;;;;;;;;4231606;28;20383;-83
2022/06/05 09:49:30;;;;;;;6.13;3.88;;;;;;;;;;4231193;28;20043;-84
2022/06/05 09:51:31;;;;;;;4.72;3.55;;;;;;;;;;4231656;28;20039;-84
2022/06/05 09:53:39;;;;;;;6.65;4.28;;;23.20;90.80;;;;;;4196836;28;20538;-84
2022/06/05 09:55:55;;;;;;;7.25;3.25;;;;;;;;;;4213891;28;20051;-84
2022/06/05 09:58:26;;;;;;;6.15;3.88;;;23.70;90.00;;;;;;4231736;28;20495;-84
2022/06/05 10:00:38;;;;;;;5.50;4.15;;;24.00;89.80;;;;;;4231944;28;20044;-84
2022/06/05 10:02:40;;;;;;;5.97;4.35;;;24.20;88.80;;;;;;4231629;28;20079;-86
2022/06/05 10:04:41;;;;;;;6.68;3.70;;;24.20;87.80;;;;;;4235603;28;20046;-85
2022/06/05 10:06:48;;;;;;;8.60;4.25;;;24.20;86.90;;;;;;4243944;28;20043;-85
2022/06/05 10:08:53;;;;;;;7.28;3.78;;;24.30;86.60;;;;;;4241898;28;20099;-86
2022/06/05 10:10:59;;;;;;;7.82;3.95;;;24.40;86.40;;;;;;4239912;28;20035;-85
2022/06/05 10:13:17;;;;;;;5.75;3.90;;;24.40;85.40;;;;;;4226163;28;20064;-85
2022/06/05 10:15:26;;;;;;;7.80;3.50;;;24.50;84.10;;;;;;4219752;28;20485;-85
2022/06/05 10:17:48;;;;;;;6.10;3.67;;;24.40;85.10;;;;;;4235054;28;20089;-86
2022/06/05 10:20:16;;;;;;;6.43;3.17;;;24.30;84.10;;;;;;4235307;28;20118;-86
2022/06/05 10:22:29;;;;;;;7.00;4.18;;;24.40;84.10;;;;;;4236188;28;20081;-85
2022/06/05 10:25:03;;;;;;;7.57;3.60;;;24.50;84.00;;;;;;4235487;28;20514;-86
2022/06/05 10:27:05;;;;;;;5.28;3.40;;;24.60;82.80;;;;;;4236271;28;20082;-85
2022/06/05 10:29:20;;;;;;;6.22;3.40;;;24.60;83.80;;;;;;4236540;28;20047;-86
2022/06/05 10:31:21;;;;;;;7.07;3.65;;;24.60;81.10;;;;;;4235687;28;20048;-86
2022/06/05 10:33:43;;;;;;;6.43;3.30;;;24.80;83.50;;;;;;4235529;28;20040;-85
2022/06/05 10:35:51;;;;;;;6.47;3.45;;;25.00;81.90;;;;;;4235846;28;20100;-86
2022/06/05 10:38:25;;;;;;;4.53;3.22;;;25.10;81.70;;;;;;4249820;27;20074;-85
2022/06/05 10:40:39;;;;;;;4.80;3.28;;;25.30;77.90;;;;;;4252264;27;20043;-82
2022/06/05 10:43:31;;;;;;;4.20;3.50;;;25.40;80.60;;;;;;4253809;27;20115;-86
2022/06/05 10:45:42;;;;;;;4.00;2.95;;;25.70;78.80;;;;;;4217329;27;20402;-86
2022/06/05 10:48:07;;;;;;;4.80;2.92;;;25.60;78.30;;;;;;4250157;27;20039;-85
2022/06/05 10:50:19;;;;;;;3.97;3.10;;;25.60;77.90;;;;;;4250363;27;20050;-86
2022/06/05 10:52:32;;;;;;;6.78;3.58;;;25.80;75.90;;;;;;4250845;27;20050;-86
2022/06/05 10:54:45;;;;;;;5.65;3.42;;;25.70;75.40;;;;;;4250899;27;20078;-81
2022/06/05 10:56:53;;;;;;;4.28;3.10;;;25.70;75.70;;;;;;4250146;27;20047;-81
2022/06/05 10:59:21;;;;;;;3.92;3.00;;;25.70;76.30;;;;;;4250775;27;20117;-79
2022/06/05 11:02:02;;;;;;;5.20;3.10;;;25.70;73.70;;;;;;4232622;28;20048;-81
2022/06/05 11:04:24;;;;;;;4.90;3.75;;;25.70;73.60;;;;;;4251048;27;20096;-81
2022/06/05 11:06:43;;;;;;;4.97;3.53;;;25.70;75.20;;;;;;4250591;27;20072;-81
2022/06/05 11:08:55;;;;;;;4.15;3.15;;;25.70;75.90;;;;;;4250460;27;20050;-82
2022/06/05 11:13:47;;;;;;;6.55;2.90;;;25.70;75.60;;;;;;4250181;27;20055;-81
2022/06/05 11:16:00;;;;;;;5.32;3.38;;;25.50;74.10;;;;;;4231855;28;20141;-82